sensor_id;sensor_type;location;lat;lon;timestamp;temperature;humidity
7684;DHT22;3884;48.616;12.872;2023-03-03T00:01:34;1.00;58.70
7684;DHT22;3884;48.616;12.872;2023-03-03T00:04:01;0.90;99.90
7684;DHT22;3884;48.616;12.872;2023-03-03T00:06:28;0.80;99.90
7684;DHT22;3884;48.616;12.872;2023-03-03T00:08:56;0.80;1.00
7684;DHT22;3884;48.616;12.872;2023-03-03T00:11:23;0.80;1.00
7684;DHT22;3884;48.616;12.872;2023-03-03T00:13:53;0.80;1.00
7684;DHT22;3884;48.616;12.872;2023-03-03T00:16:23;0.80;1.00
7684;DHT22;3884;48.616;12.872;2023-03-03T00:18:51;0.80;1.00
7684;DHT22;3884;48.616;12.872;2023-03-03T00:21:27;0.80;96.70
7684;DHT22;3884;48.616;12.872;2023-03-03T00:24:02;0.80;99.90
7684;DHT22;3884;48.616;12.872;2023-03-03T00:26:42;0.80;1.00
7684;DHT22;3884;48.616;12.872;2023-03-03T00:29:32;0.80;99.90
7684;DHT22;3884;48.616;12.872;2023-03-03T00:32:20;0.70;99.90
7684;DHT22;3884;48.616;12.872;2023-03-03T00:34:49;0.60;99.90
7684;DHT22;3884;48.616;12.872;2023-03-03T00:37:27;0.50;1.00
7684;DHT22;3884;48.616;12.872;2023-03-03T00:40:01;0.60;24.00
7684;DHT22;3884;48.616;12.872;2023-03-03T00:42:33;0.60;1.00
7684;DHT22;3884;48.616;12.872;2023-03-03T00:45:16;0.60;1.00
7684;DHT22;3884;48.616;12.872;2023-03-03T00:47:44;0.70;1.00
7684;DHT22;3884;48.616;12.872;2023-03-03T00:50:30;0.70;99.90
7684;DHT22;3884;48.616;12.872;2023-03-03T00:53:03;0.70;1.00
7684;DHT22;3884;48.616;12.872;2023-03-03T00:55:31;0.60;1.00
7684;DHT22;3884;48.616;12.872;2023-03-03T00:57:58;0.40;1.00
7684;DHT22;3884;48.616;12.872;2023-03-03T01:00:32;0.40;1.00
7684;DHT22;3884;48.616;12.872;2023-03-03T01:03:02;0.40;99.90
7684;DHT22;3884;48.616;12.872;2023-03-03T01:05:30;0.40;1.00
7684;DHT22;3884;48.616;12.872;2023-03-03T01:07:57;0.30;1.00
7684;DHT22;3884;48.616;12.872;2023-03-03T01:10:25;0.30;99.90
7684;DHT22;3884;48.616;12.872;2023-03-03T01:12:54;0.30;1.00
7684;DHT22;3884;48.616;12.872;2023-03-03T01:15:22;0.30;1.00
7684;DHT22;3884;48.616;12.872;2023-03-03T01:17:51;0.30;99.90
7684;DHT22;3884;48.616;12.872;2023-03-03T01:20:18;0.30;1.00
7684;DHT22;3884;48.616;12.872;2023-03-03T01:22:45;0.40;99.90
7684;DHT22;3884;48.616;12.872;2023-03-03T01:25:12;0.40;99.20
7684;DHT22;3884;48.616;12.872;2023-03-03T01:27:39;0.40;1.00
7684;DHT22;3884;48.616;12.872;2023-03-03T01:30:08;0.40;1.00
7684;DHT22;3884;48.616;12.872;2023-03-03T01:32:36;0.40;1.00
7684;DHT22;3884;48.616;12.872;2023-03-03T01:35:05;0.50;1.00
7684;DHT22;3884;48.616;12.872;2023-03-03T01:37:33;0.50;64.30
7684;DHT22;3884;48.616;12.872;2023-03-03T01:40:02;0.60;99.90
7684;DHT22;3884;48.616;12.872;2023-03-03T01:42:29;0.50;1.00
7684;DHT22;3884;48.616;12.872;2023-03-03T01:45:16;0.50;99.90
7684;DHT22;3884;48.616;12.872;2023-03-03T01:47:48;0.30;1.00
7684;DHT22;3884;48.616;12.872;2023-03-03T01:50:27;0.30;99.90
7684;DHT22;3884;48.616;12.872;2023-03-03T01:52:57;0.20;99.90
7684;DHT22;3884;48.616;12.872;2023-03-03T01:55:29;0.20;99.90
7684;DHT22;3884;48.616;12.872;2023-03-03T01:58:00;0.10;69.30
7684;DHT22;3884;48.616;12.872;2023-03-03T02:00:31;0.10;99.90
7684;DHT22;3884;48.616;12.872;2023-03-03T02:02:58;0.10;1.00
7684;DHT22;3884;48.616;12.872;2023-03-03T02:05:27;0.10;99.90
7684;DHT22;3884;48.616;12.872;2023-03-03T02:07:55;0.10;46.20
7684;DHT22;3884;48.616;12.872;2023-03-03T02:10:22;0.10;99.90
7684;DHT22;3884;48.616;12.872;2023-03-03T02:12:51;0.10;99.90
7684;DHT22;3884;48.616;12.872;2023-03-03T02:15:20;0.10;99.90
7684;DHT22;3884;48.616;12.872;2023-03-03T02:17:49;0.10;1.00
7684;DHT22;3884;48.616;12.872;2023-03-03T02:20:26;0.00;99.90
7684;DHT22;3884;48.616;12.872;2023-03-03T02:22:59;0.00;1.00
7684;DHT22;3884;48.616;12.872;2023-03-03T02:25:39;0.10;1.00
7684;DHT22;3884;48.616;12.872;2023-03-03T02:28:10;0.00;99.90
7684;DHT22;3884;48.616;12.872;2023-03-03T02:30:38;-0.10;1.00
7684;DHT22;3884;48.616;12.872;2023-03-03T02:33:08;-0.20;99.90
7684;DHT22;3884;48.616;12.872;2023-03-03T02:35:36;-0.20;1.00
7684;DHT22;3884;48.616;12.872;2023-03-03T02:38:11;-0.20;1.00
7684;DHT22;3884;48.616;12.872;2023-03-03T02:40:44;-0.40;1.00
7684;DHT22;3884;48.616;12.872;2023-03-03T02:43:18;-0.30;99.90
7684;DHT22;3884;48.616;12.872;2023-03-03T02:45:47;-0.40;1.00
7684;DHT22;3884;48.616;12.872;2023-03-03T02:48:14;-0.40;1.00
7684;DHT22;3884;48.616;12.872;2023-03-03T02:50:41;-0.40;1.00
7684;DHT22;3884;48.616;12.872;2023-03-03T02:53:08;-0.30;99.90
7684;DHT22;3884;48.616;12.872;2023-03-03T02:55:35;-0.30;99.90
7684;DHT22;3884;48.616;12.872;2023-03-03T02:58:02;-0.20;99.90
7684;DHT22;3884;48.616;12.872;2023-03-03T03:00:31;-0.20;1.00
7684;DHT22;3884;48.616;12.872;2023-03-03T03:02:59;-0.20;1.00
7684;DHT22;3884;48.616;12.872;2023-03-03T03:05:27;-0.30;99.90
7684;DHT22;3884;48.616;12.872;2023-03-03T03:07:54;-0.20;99.90
7684;DHT22;3884;48.616;12.872;2023-03-03T03:10:22;-0.40;1.00
7684;DHT22;3884;48.616;12.872;2023-03-03T03:12:50;-0.30;99.90
7684;DHT22;3884;48.616;12.872;2023-03-03T03:15:17;-0.30;99.90
7684;DHT22;3884;48.616;12.872;2023-03-03T03:17:45;-0.40;1.00
7684;DHT22;3884;48.616;12.872;2023-03-03T03:20:13;-0.50;99.90
7684;DHT22;3884;48.616;12.872;2023-03-03T03:22:40;-0.40;1.00
7684;DHT22;3884;48.616;12.872;2023-03-03T03:25:08;-0.40;1.00
7684;DHT22;3884;48.616;12.872;2023-03-03T03:27:36;-0.60;99.90
7684;DHT22;3884;48.616;12.872;2023-03-03T03:30:03;-0.60;1.00
7684;DHT22;3884;48.616;12.872;2023-03-03T03:32:31;-0.60;1.00
7684;DHT22;3884;48.616;12.872;2023-03-03T03:35:01;-0.60;99.90
7684;DHT22;3884;48.616;12.872;2023-03-03T03:37:28;-0.60;46.30
7684;DHT22;3884;48.616;12.872;2023-03-03T03:39:55;-0.50;99.90
7684;DHT22;3884;48.616;12.872;2023-03-03T03:42:23;-0.40;99.90
7684;DHT22;3884;48.616;12.872;2023-03-03T03:44:51;-0.30;86.90
7684;DHT22;3884;48.616;12.872;2023-03-03T03:47:18;-0.30;1.00
7684;DHT22;3884;48.616;12.872;2023-03-03T03:49:45;-0.30;99.90
7684;DHT22;3884;48.616;12.872;2023-03-03T03:52:14;-0.30;1.00
7684;DHT22;3884;48.616;12.872;2023-03-03T03:54:41;-0.30;99.90
7684;DHT22;3884;48.616;12.872;2023-03-03T03:57:08;-0.20;21.80
7684;DHT22;3884;48.616;12.872;2023-03-03T03:59:36;-0.20;14.40
7684;DHT22;3884;48.616;12.872;2023-03-03T04:02:03;-0.10;99.90
7684;DHT22;3884;48.616;12.872;2023-03-03T04:04:31;-0.20;1.00
7684;DHT22;3884;48.616;12.872;2023-03-03T04:06:59;-0.20;20.60
7684;DHT22;3884;48.616;12.872;2023-03-03T04:09:27;-0.10;1.00
7684;DHT22;3884;48.616;12.872;2023-03-03T04:11:54;-0.10;55.70
7684;DHT22;3884;48.616;12.872;2023-03-03T04:14:25;-0.10;99.90
7684;DHT22;3884;48.616;12.872;2023-03-03T04:16:53;-0.10;1.00
7684;DHT22;3884;48.616;12.872;2023-03-03T04:19:21;-0.10;1.00
7684;DHT22;3884;48.616;12.872;2023-03-03T04:21:50;-0.10;99.90
7684;DHT22;3884;48.616;12.872;2023-03-03T04:24:17;-0.10;99.90
7684;DHT22;3884;48.616;12.872;2023-03-03T04:26:48;0.00;1.00
7684;DHT22;3884;48.616;12.872;2023-03-03T04:29:15;0.00;1.00
7684;DHT22;3884;48.616;12.872;2023-03-03T04:31:43;0.00;1.00
7684;DHT22;3884;48.616;12.872;2023-03-03T04:34:10;0.10;1.00
7684;DHT22;3884;48.616;12.872;2023-03-03T04:36:38;0.10;1.00
7684;DHT22;3884;48.616;12.872;2023-03-03T04:39:05;0.10;1.00
7684;DHT22;3884;48.616;12.872;2023-03-03T04:41:32;0.10;1.00
7684;DHT22;3884;48.616;12.872;2023-03-03T04:44:01;0.10;1.00
7684;DHT22;3884;48.616;12.872;2023-03-03T04:46:28;0.30;1.00
7684;DHT22;3884;48.616;12.872;2023-03-03T04:48:57;0.30;99.90
7684;DHT22;3884;48.616;12.872;2023-03-03T04:51:25;0.20;99.90
7684;DHT22;3884;48.616;12.872;2023-03-03T04:53:52;0.20;99.90
7684;DHT22;3884;48.616;12.872;2023-03-03T04:56:19;0.20;99.90
7684;DHT22;3884;48.616;12.872;2023-03-03T04:58:48;0.30;99.90
7684;DHT22;3884;48.616;12.872;2023-03-03T05:01:17;0.30;1.00
7684;DHT22;3884;48.616;12.872;2023-03-03T05:03:45;0.10;1.00
7684;DHT22;3884;48.616;12.872;2023-03-03T05:06:12;0.10;1.00
7684;DHT22;3884;48.616;12.872;2023-03-03T05:08:39;0.00;1.00
7684;DHT22;3884;48.616;12.872;2023-03-03T05:11:07;0.00;1.00
7684;DHT22;3884;48.616;12.872;2023-03-03T05:13:34;0.00;1.00
7684;DHT22;3884;48.616;12.872;2023-03-03T05:16:01;-0.10;1.00
7684;DHT22;3884;48.616;12.872;2023-03-03T05:18:30;-0.10;1.00
7684;DHT22;3884;48.616;12.872;2023-03-03T05:20:57;-0.10;1.00
7684;DHT22;3884;48.616;12.872;2023-03-03T05:23:24;-0.10;1.00
7684;DHT22;3884;48.616;12.872;2023-03-03T05:25:52;-0.30;1.00
7684;DHT22;3884;48.616;12.872;2023-03-03T05:28:19;-0.30;99.90
7684;DHT22;3884;48.616;12.872;2023-03-03T05:30:46;-0.50;99.90
7684;DHT22;3884;48.616;12.872;2023-03-03T05:33:14;-0.70;1.00
7684;DHT22;3884;48.616;12.872;2023-03-03T05:35:43;-0.70;1.00
7684;DHT22;3884;48.616;12.872;2023-03-03T05:38:10;-0.60;2.30
7684;DHT22;3884;48.616;12.872;2023-03-03T05:40:38;-0.60;1.00
7684;DHT22;3884;48.616;12.872;2023-03-03T05:43:05;-0.50;1.00
7684;DHT22;3884;48.616;12.872;2023-03-03T05:45:32;-0.60;1.00
7684;DHT22;3884;48.616;12.872;2023-03-03T05:48:00;-0.50;1.00
7684;DHT22;3884;48.616;12.872;2023-03-03T05:50:27;-0.50;1.00
7684;DHT22;3884;48.616;12.872;2023-03-03T05:52:56;-0.50;1.00
7684;DHT22;3884;48.616;12.872;2023-03-03T05:55:24;-0.40;99.90
7684;DHT22;3884;48.616;12.872;2023-03-03T05:57:51;-0.40;99.90
7684;DHT22;3884;48.616;12.872;2023-03-03T06:00:18;-0.40;99.90
7684;DHT22;3884;48.616;12.872;2023-03-03T06:02:46;-0.30;1.00
7684;DHT22;3884;48.616;12.872;2023-03-03T06:05:13;-0.30;1.00
7684;DHT22;3884;48.616;12.872;2023-03-03T06:07:40;-0.20;1.00
7684;DHT22;3884;48.616;12.872;2023-03-03T06:10:09;0.00;1.00
7684;DHT22;3884;48.616;12.872;2023-03-03T06:12:39;-0.20;1.00
7684;DHT22;3884;48.616;12.872;2023-03-03T06:15:08;-0.10;99.90
7684;DHT22;3884;48.616;12.872;2023-03-03T06:17:36;-0.20;99.90
7684;DHT22;3884;48.616;12.872;2023-03-03T06:20:03;-0.20;1.00
7684;DHT22;3884;48.616;12.872;2023-03-03T06:22:31;-0.20;1.00
7684;DHT22;3884;48.616;12.872;2023-03-03T06:24:58;-0.20;54.70
7684;DHT22;3884;48.616;12.872;2023-03-03T06:27:27;-0.20;99.90
7684;DHT22;3884;48.616;12.872;2023-03-03T06:29:54;-0.10;99.90
7684;DHT22;3884;48.616;12.872;2023-03-03T06:32:21;0.00;99.90
7684;DHT22;3884;48.616;12.872;2023-03-03T06:34:48;0.00;99.90
7684;DHT22;3884;48.616;12.872;2023-03-03T06:37:15;0.00;99.90
7684;DHT22;3884;48.616;12.872;2023-03-03T06:39:42;0.10;99.90
7684;DHT22;3884;48.616;12.872;2023-03-03T06:42:09;0.10;99.90
7684;DHT22;3884;48.616;12.872;2023-03-03T06:44:38;0.20;99.90
7684;DHT22;3884;48.616;12.872;2023-03-03T06:47:05;0.30;99.90
7684;DHT22;3884;48.616;12.872;2023-03-03T06:49:32;0.40;99.90
7684;DHT22;3884;48.616;12.872;2023-03-03T06:52:00;0.40;99.90
7684;DHT22;3884;48.616;12.872;2023-03-03T06:54:31;0.50;99.90
7684;DHT22;3884;48.616;12.872;2023-03-03T06:57:00;0.50;99.90
7684;DHT22;3884;48.616;12.872;2023-03-03T06:59:28;0.60;99.90
7684;DHT22;3884;48.616;12.872;2023-03-03T07:01:57;0.60;1.00
7684;DHT22;3884;48.616;12.872;2023-03-03T07:04:27;0.60;99.90
7684;DHT22;3884;48.616;12.872;2023-03-03T07:06:55;0.60;1.00
7684;DHT22;3884;48.616;12.872;2023-03-03T07:09:25;0.60;1.00
7684;DHT22;3884;48.616;12.872;2023-03-03T07:11:53;0.70;1.00
7684;DHT22;3884;48.616;12.872;2023-03-03T07:14:22;0.80;1.00
7684;DHT22;3884;48.616;12.872;2023-03-03T07:16:51;0.80;1.00
7684;DHT22;3884;48.616;12.872;2023-03-03T07:19:29;0.90;1.00
7684;DHT22;3884;48.616;12.872;2023-03-03T07:21:57;1.00;1.00
7684;DHT22;3884;48.616;12.872;2023-03-03T07:24:26;0.90;1.00
7684;DHT22;3884;48.616;12.872;2023-03-03T07:26:57;1.00;1.00
7684;DHT22;3884;48.616;12.872;2023-03-03T07:29:27;1.00;1.00
7684;DHT22;3884;48.616;12.872;2023-03-03T07:31:57;1.10;1.00
7684;DHT22;3884;48.616;12.872;2023-03-03T07:34:29;1.10;1.00
7684;DHT22;3884;48.616;12.872;2023-03-03T07:37:08;1.30;1.00
7684;DHT22;3884;48.616;12.872;2023-03-03T07:39:37;1.30;1.00
7684;DHT22;3884;48.616;12.872;2023-03-03T07:42:17;1.40;1.00
7684;DHT22;3884;48.616;12.872;2023-03-03T07:44:53;1.50;99.90
7684;DHT22;3884;48.616;12.872;2023-03-03T07:47:23;1.60;99.90
7684;DHT22;3884;48.616;12.872;2023-03-03T07:49:53;1.70;99.90
7684;DHT22;3884;48.616;12.872;2023-03-03T07:52:27;1.80;33.10
7684;DHT22;3884;48.616;12.872;2023-03-03T07:54:56;1.90;1.00
7684;DHT22;3884;48.616;12.872;2023-03-03T07:57:25;2.20;1.00
7684;DHT22;3884;48.616;12.872;2023-03-03T07:59:54;2.40;1.00
7684;DHT22;3884;48.616;12.872;2023-03-03T08:02:39;2.40;99.90
7684;DHT22;3884;48.616;12.872;2023-03-03T08:05:29;2.60;1.00
7684;DHT22;3884;48.616;12.872;2023-03-03T08:08:20;2.70;1.00
7684;DHT22;3884;48.616;12.872;2023-03-03T08:10:48;2.60;99.90
7684;DHT22;3884;48.616;12.872;2023-03-03T08:13:18;2.70;99.90
7684;DHT22;3884;48.616;12.872;2023-03-03T08:15:47;2.60;1.00
7684;DHT22;3884;48.616;12.872;2023-03-03T08:18:23;2.70;99.90
7684;DHT22;3884;48.616;12.872;2023-03-03T08:20:59;2.70;1.00
7684;DHT22;3884;48.616;12.872;2023-03-03T08:23:26;2.60;1.00
7684;DHT22;3884;48.616;12.872;2023-03-03T08:25:53;2.60;99.90
7684;DHT22;3884;48.616;12.872;2023-03-03T08:28:21;2.60;99.90
7684;DHT22;3884;48.616;12.872;2023-03-03T08:30:49;2.60;1.00
7684;DHT22;3884;48.616;12.872;2023-03-03T08:33:16;2.50;1.00
7684;DHT22;3884;48.616;12.872;2023-03-03T08:35:44;2.40;1.00
7684;DHT22;3884;48.616;12.872;2023-03-03T08:38:13;2.50;1.00
7684;DHT22;3884;48.616;12.872;2023-03-03T08:40:41;2.50;99.90
7684;DHT22;3884;48.616;12.872;2023-03-03T08:43:08;2.60;1.00
7684;DHT22;3884;48.616;12.872;2023-03-03T08:45:36;2.70;99.90
7684;DHT22;3884;48.616;12.872;2023-03-03T08:48:03;2.80;1.00
7684;DHT22;3884;48.616;12.872;2023-03-03T08:50:30;3.00;99.90
7684;DHT22;3884;48.616;12.872;2023-03-03T08:52:58;3.20;28.90
7684;DHT22;3884;48.616;12.872;2023-03-03T08:55:26;3.30;1.00
7684;DHT22;3884;48.616;12.872;2023-03-03T08:57:53;3.50;99.90
7684;DHT22;3884;48.616;12.872;2023-03-03T09:00:21;3.50;1.00
7684;DHT22;3884;48.616;12.872;2023-03-03T09:02:49;3.50;99.90
7684;DHT22;3884;48.616;12.872;2023-03-03T09:05:16;3.60;1.00
7684;DHT22;3884;48.616;12.872;2023-03-03T09:07:45;3.60;99.90
7684;DHT22;3884;48.616;12.872;2023-03-03T09:10:14;3.70;99.90
7684;DHT22;3884;48.616;12.872;2023-03-03T09:12:44;3.70;1.00
7684;DHT22;3884;48.616;12.872;2023-03-03T09:15:24;3.80;98.00
7684;DHT22;3884;48.616;12.872;2023-03-03T09:17:53;3.80;99.90
7684;DHT22;3884;48.616;12.872;2023-03-03T09:20:24;3.90;99.90
7684;DHT22;3884;48.616;12.872;2023-03-03T09:22:53;4.00;99.90
7684;DHT22;3884;48.616;12.872;2023-03-03T09:25:28;4.10;1.00
7684;DHT22;3884;48.616;12.872;2023-03-03T09:27:58;4.10;99.90
7684;DHT22;3884;48.616;12.872;2023-03-03T09:30:34;4.20;1.00
7684;DHT22;3884;48.616;12.872;2023-03-03T09:33:19;4.40;1.00
7684;DHT22;3884;48.616;12.872;2023-03-03T09:35:49;4.40;99.90
7684;DHT22;3884;48.616;12.872;2023-03-03T09:38:25;4.60;81.70
7684;DHT22;3884;48.616;12.872;2023-03-03T09:44:18;4.70;99.90
7684;DHT22;3884;48.616;12.872;2023-03-03T09:46:57;4.70;1.00
7684;DHT22;3884;48.616;12.872;2023-03-03T09:49:31;4.80;1.00
7684;DHT22;3884;48.616;12.872;2023-03-03T09:52:17;4.80;1.00
7684;DHT22;3884;48.616;12.872;2023-03-03T09:54:56;4.90;99.90
7684;DHT22;3884;48.616;12.872;2023-03-03T09:57:36;4.90;1.00
7684;DHT22;3884;48.616;12.872;2023-03-03T10:00:19;5.00;1.00
7684;DHT22;3884;48.616;12.872;2023-03-03T10:03:02;5.20;1.00
7684;DHT22;3884;48.616;12.872;2023-03-03T10:05:43;5.30;13.60
7684;DHT22;3884;48.616;12.872;2023-03-03T10:08:29;5.40;1.00
7684;DHT22;3884;48.616;12.872;2023-03-03T10:11:07;5.50;1.00
7684;DHT22;3884;48.616;12.872;2023-03-03T10:13:47;5.40;1.00
7684;DHT22;3884;48.616;12.872;2023-03-03T10:16:56;5.40;1.00
7684;DHT22;3884;48.616;12.872;2023-03-03T10:19:36;5.50;1.00
7684;DHT22;3884;48.616;12.872;2023-03-03T10:22:15;5.50;1.00
7684;DHT22;3884;48.616;12.872;2023-03-03T10:24:53;5.50;1.00
7684;DHT22;3884;48.616;12.872;2023-03-03T10:27:36;5.60;1.00
7684;DHT22;3884;48.616;12.872;2023-03-03T10:30:10;5.70;1.00
7684;DHT22;3884;48.616;12.872;2023-03-03T10:32:45;5.70;1.00
7684;DHT22;3884;48.616;12.872;2023-03-03T10:35:41;5.80;1.00
7684;DHT22;3884;48.616;12.872;2023-03-03T10:38:33;5.90;99.90
7684;DHT22;3884;48.616;12.872;2023-03-03T10:41:12;5.70;99.90
7684;DHT22;3884;48.616;12.872;2023-03-03T10:43:55;5.80;99.90
7684;DHT22;3884;48.616;12.872;2023-03-03T10:46:45;5.80;99.90
7684;DHT22;3884;48.616;12.872;2023-03-03T10:49:33;5.80;99.90
7684;DHT22;3884;48.616;12.872;2023-03-03T10:52:23;5.80;99.90
7684;DHT22;3884;48.616;12.872;2023-03-03T10:55:14;5.80;99.90
7684;DHT22;3884;48.616;12.872;2023-03-03T10:57:51;6.00;99.90
7684;DHT22;3884;48.616;12.872;2023-03-03T11:00:24;6.10;99.90
7684;DHT22;3884;48.616;12.872;2023-03-03T11:06:05;6.20;16.40
7684;DHT22;3884;48.616;12.872;2023-03-03T11:08:40;6.10;58.70
7684;DHT22;3884;48.616;12.872;2023-03-03T11:11:14;6.20;1.00
7684;DHT22;3884;48.616;12.872;2023-03-03T11:13:47;6.20;1.00
7684;DHT22;3884;48.616;12.872;2023-03-03T11:16:29;6.30;1.00
7684;DHT22;3884;48.616;12.872;2023-03-03T11:19:11;6.40;1.00
7684;DHT22;3884;48.616;12.872;2023-03-03T11:21:48;6.60;1.00
7684;DHT22;3884;48.616;12.872;2023-03-03T11:24:33;6.70;1.00
7684;DHT22;3884;48.616;12.872;2023-03-03T11:27:24;6.90;1.00
7684;DHT22;3884;48.616;12.872;2023-03-03T11:30:19;6.90;1.00
7684;DHT22;3884;48.616;12.872;2023-03-03T11:33:01;7.00;1.00
7684;DHT22;3884;48.616;12.872;2023-03-03T11:35:36;7.00;1.00
7684;DHT22;3884;48.616;12.872;2023-03-03T11:38:21;7.00;1.00
7684;DHT22;3884;48.616;12.872;2023-03-03T11:40:52;7.20;1.00
7684;DHT22;3884;48.616;12.872;2023-03-03T11:43:24;7.20;1.00
7684;DHT22;3884;48.616;12.872;2023-03-03T11:45:55;7.30;1.00
7684;DHT22;3884;48.616;12.872;2023-03-03T11:48:35;7.40;99.90
7684;DHT22;3884;48.616;12.872;2023-03-03T11:51:06;7.60;99.90
7684;DHT22;3884;48.616;12.872;2023-03-03T11:53:48;7.70;99.90
7684;DHT22;3884;48.616;12.872;2023-03-03T11:56:21;7.90;99.90
7684;DHT22;3884;48.616;12.872;2023-03-03T11:58:57;8.00;99.90
7684;DHT22;3884;48.616;12.872;2023-03-03T12:01:32;8.10;99.90
7684;DHT22;3884;48.616;12.872;2023-03-03T12:04:04;8.10;99.90
7684;DHT22;3884;48.616;12.872;2023-03-03T12:06:38;8.00;99.90
7684;DHT22;3884;48.616;12.872;2023-03-03T12:09:15;8.00;99.90
7684;DHT22;3884;48.616;12.872;2023-03-03T12:11:51;8.00;99.90
7684;DHT22;3884;48.616;12.872;2023-03-03T12:14:32;8.10;99.90
7684;DHT22;3884;48.616;12.872;2023-03-03T12:17:10;8.10;99.90
7684;DHT22;3884;48.616;12.872;2023-03-03T12:19:46;8.20;99.90
7684;DHT22;3884;48.616;12.872;2023-03-03T12:22:25;8.20;99.90
7684;DHT22;3884;48.616;12.872;2023-03-03T12:25:17;8.20;99.90
7684;DHT22;3884;48.616;12.872;2023-03-03T12:27:51;8.30;99.90
7684;DHT22;3884;48.616;12.872;2023-03-03T12:30:31;8.40;99.90
7684;DHT22;3884;48.616;12.872;2023-03-03T12:33:14;8.40;99.90
7684;DHT22;3884;48.616;12.872;2023-03-03T12:35:50;8.30;99.90
7684;DHT22;3884;48.616;12.872;2023-03-03T12:38:28;8.30;99.90
7684;DHT22;3884;48.616;12.872;2023-03-03T12:41:04;8.40;99.90
7684;DHT22;3884;48.616;12.872;2023-03-03T12:43:47;8.40;99.90
7684;DHT22;3884;48.616;12.872;2023-03-03T12:46:23;8.50;98.40
7684;DHT22;3884;48.616;12.872;2023-03-03T12:48:51;8.50;56.70
7684;DHT22;3884;48.616;12.872;2023-03-03T12:51:30;8.50;53.40
7684;DHT22;3884;48.616;12.872;2023-03-03T12:54:24;8.40;38.90
7684;DHT22;3884;48.616;12.872;2023-03-03T12:57:00;8.50;25.20
7684;DHT22;3884;48.616;12.872;2023-03-03T12:59:40;8.60;26.30
7684;DHT22;3884;48.616;12.872;2023-03-03T13:05:20;8.70;5.00
7684;DHT22;3884;48.616;12.872;2023-03-03T13:07:55;8.80;2.60
7684;DHT22;3884;48.616;12.872;2023-03-03T13:10:34;8.90;1.00
7684;DHT22;3884;48.616;12.872;2023-03-03T13:13:07;8.90;1.00
7684;DHT22;3884;48.616;12.872;2023-03-03T13:15:40;8.80;1.00
7684;DHT22;3884;48.616;12.872;2023-03-03T13:18:24;9.00;1.00
7684;DHT22;3884;48.616;12.872;2023-03-03T13:20:59;9.10;1.00
7684;DHT22;3884;48.616;12.872;2023-03-03T13:23:42;9.10;1.00
7684;DHT22;3884;48.616;12.872;2023-03-03T13:26:19;9.10;1.00
7684;DHT22;3884;48.616;12.872;2023-03-03T13:28:59;9.00;1.00
7684;DHT22;3884;48.616;12.872;2023-03-03T13:31:32;9.10;1.00
7684;DHT22;3884;48.616;12.872;2023-03-03T13:34:00;9.20;1.00
7684;DHT22;3884;48.616;12.872;2023-03-03T13:36:30;9.20;1.00
7684;DHT22;3884;48.616;12.872;2023-03-03T13:39:04;9.30;1.00
7684;DHT22;3884;48.616;12.872;2023-03-03T13:41:37;9.30;1.00
7684;DHT22;3884;48.616;12.872;2023-03-03T13:44:12;9.40;1.00
7684;DHT22;3884;48.616;12.872;2023-03-03T13:46:47;9.50;1.00
7684;DHT22;3884;48.616;12.872;2023-03-03T13:49:46;9.50;1.00
7684;DHT22;3884;48.616;12.872;2023-03-03T13:52:19;9.50;1.00
7684;DHT22;3884;48.616;12.872;2023-03-03T13:54:54;9.40;1.00
7684;DHT22;3884;48.616;12.872;2023-03-03T13:57:42;9.40;1.00
7684;DHT22;3884;48.616;12.872;2023-03-03T14:00:33;9.50;1.00
7684;DHT22;3884;48.616;12.872;2023-03-03T14:03:12;9.80;1.00
7684;DHT22;3884;48.616;12.872;2023-03-03T14:05:44;9.80;1.00
7684;DHT22;3884;48.616;12.872;2023-03-03T14:08:21;9.80;1.00
7684;DHT22;3884;48.616;12.872;2023-03-03T14:11:02;9.90;1.00
7684;DHT22;3884;48.616;12.872;2023-03-03T14:13:36;10.00;1.00
7684;DHT22;3884;48.616;12.872;2023-03-03T14:16:09;9.90;1.00
7684;DHT22;3884;48.616;12.872;2023-03-03T14:18:42;10.10;1.00
7684;DHT22;3884;48.616;12.872;2023-03-03T14:21:17;10.10;1.00
7684;DHT22;3884;48.616;12.872;2023-03-03T14:23:50;10.10;1.00
7684;DHT22;3884;48.616;12.872;2023-03-03T14:26:17;10.20;1.00
7684;DHT22;3884;48.616;12.872;2023-03-03T14:28:46;10.20;1.00
7684;DHT22;3884;48.616;12.872;2023-03-03T14:31:19;10.20;1.00
7684;DHT22;3884;48.616;12.872;2023-03-03T14:33:57;10.20;1.00
7684;DHT22;3884;48.616;12.872;2023-03-03T14:36:28;10.20;1.00
7684;DHT22;3884;48.616;12.872;2023-03-03T14:38:56;10.30;1.00
7684;DHT22;3884;48.616;12.872;2023-03-03T14:41:35;10.40;1.00
7684;DHT22;3884;48.616;12.872;2023-03-03T14:44:23;10.60;1.00
7684;DHT22;3884;48.616;12.872;2023-03-03T14:47:18;10.70;1.00
7684;DHT22;3884;48.616;12.872;2023-03-03T14:49:46;10.70;1.00
7684;DHT22;3884;48.616;12.872;2023-03-03T14:52:20;10.80;1.00
7684;DHT22;3884;48.616;12.872;2023-03-03T14:54:50;10.90;1.00
7684;DHT22;3884;48.616;12.872;2023-03-03T14:57:19;10.90;1.00
7684;DHT22;3884;48.616;12.872;2023-03-03T14:59:57;10.90;1.00
7684;DHT22;3884;48.616;12.872;2023-03-03T15:02:34;10.90;1.00
7684;DHT22;3884;48.616;12.872;2023-03-03T15:05:21;11.00;1.00
7684;DHT22;3884;48.616;12.872;2023-03-03T15:07:52;11.10;1.00
7684;DHT22;3884;48.616;12.872;2023-03-03T15:10:30;11.10;1.00
7684;DHT22;3884;48.616;12.872;2023-03-03T15:12:58;11.00;99.90
7684;DHT22;3884;48.616;12.872;2023-03-03T15:15:26;11.00;1.00
7684;DHT22;3884;48.616;12.872;2023-03-03T15:18:00;11.00;99.90
7684;DHT22;3884;48.616;12.872;2023-03-03T15:20:43;11.20;99.90
7684;DHT22;3884;48.616;12.872;2023-03-03T15:23:38;11.00;99.90
7684;DHT22;3884;48.616;12.872;2023-03-03T15:26:13;11.10;99.90
7684;DHT22;3884;48.616;12.872;2023-03-03T15:28:54;11.10;99.90
7684;DHT22;3884;48.616;12.872;2023-03-03T15:31:30;11.00;99.90
7684;DHT22;3884;48.616;12.872;2023-03-03T15:34:04;11.10;99.90
7684;DHT22;3884;48.616;12.872;2023-03-03T15:36:43;11.00;99.90
7684;DHT22;3884;48.616;12.872;2023-03-03T15:39:19;11.10;99.90
7684;DHT22;3884;48.616;12.872;2023-03-03T15:41:56;10.90;99.90
7684;DHT22;3884;48.616;12.872;2023-03-03T15:44:31;11.00;99.90
7684;DHT22;3884;48.616;12.872;2023-03-03T15:47:23;11.00;99.90
7684;DHT22;3884;48.616;12.872;2023-03-03T15:50:10;10.90;99.90
7684;DHT22;3884;48.616;12.872;2023-03-03T15:52:54;10.90;99.90
7684;DHT22;3884;48.616;12.872;2023-03-03T15:55:37;11.00;99.90
7684;DHT22;3884;48.616;12.872;2023-03-03T15:58:29;10.80;99.90
7684;DHT22;3884;48.616;12.872;2023-03-03T16:01:07;10.60;99.90
7684;DHT22;3884;48.616;12.872;2023-03-03T16:03:38;10.60;99.90
7684;DHT22;3884;48.616;12.872;2023-03-03T16:06:15;10.50;99.90
7684;DHT22;3884;48.616;12.872;2023-03-03T16:08:50;10.40;99.90
7684;DHT22;3884;48.616;12.872;2023-03-03T16:11:25;10.40;99.90
7684;DHT22;3884;48.616;12.872;2023-03-03T16:14:18;10.30;99.90
7684;DHT22;3884;48.616;12.872;2023-03-03T16:16:53;10.20;99.90
7684;DHT22;3884;48.616;12.872;2023-03-03T16:19:36;10.10;99.90
7684;DHT22;3884;48.616;12.872;2023-03-03T16:22:24;10.10;99.90
7684;DHT22;3884;48.616;12.872;2023-03-03T16:25:06;10.00;99.90
7684;DHT22;3884;48.616;12.872;2023-03-03T16:27:44;10.00;99.90
7684;DHT22;3884;48.616;12.872;2023-03-03T16:30:24;10.00;99.90
7684;DHT22;3884;48.616;12.872;2023-03-03T16:32:55;9.90;99.90
7684;DHT22;3884;48.616;12.872;2023-03-03T16:35:29;9.80;99.90
7684;DHT22;3884;48.616;12.872;2023-03-03T16:38:00;9.60;99.90
7684;DHT22;3884;48.616;12.872;2023-03-03T16:40:31;9.20;99.90
7684;DHT22;3884;48.616;12.872;2023-03-03T16:43:09;8.80;99.90
7684;DHT22;3884;48.616;12.872;2023-03-03T16:45:38;8.50;99.90
7684;DHT22;3884;48.616;12.872;2023-03-03T16:48:29;8.40;1.00
7684;DHT22;3884;48.616;12.872;2023-03-03T16:51:13;8.20;1.00
7684;DHT22;3884;48.616;12.872;2023-03-03T16:53:49;8.20;1.00